Leary, Texas
Current Conditions -  °F | °C
As of 4:53 AM on Wednesday 22 Oct 2014 (Local Time) from KTXK Reporting Station
Haze Haze  
Wind Chill: 55°   Ceiling: Unl
Heat Index: 55°   Visibility: 3mi
Dew Point: 55°   Wind: 3mph
Humidity: 100%   Direction: 80°E
Pressure: 30.1"   Gusts: NA
Location:  33.474°N, 94.2882°W
Report Text: KTXK 220953Z AUTO 08003KT 3SM BR CLR 13/13 A3010 RMK AO2 SLP190 T01280128
Loading
Personal Weather Stations






























Interactive Weather Map
Tropical Storm Tracking
New forecast layout! Learn more

10-Day Weather Forecast

Advertisements
Track Severe Weather on mobile